Hauptseite
METAR-TAF:

METAR-TAF

Flughäfen :

St. Moritz, Schweiz

Flughafen Engadin

Breite: 46-32-03N, Länge: 9-53-03E, Höhe: 1707 m

Beobachtung

Neuester Wetterbericht von vor 15 Minuten, um 22:50 UTC
Wind 1 kt aus unterschiedlichen Richtungen
Temperatur 1°C
Luftfeuchtigkeit 80%
Luftdruck 1025 hPa
Sichtweite 10 km oder mehr
keine Wolken unter 1500 m und keine Kumulonimbus oder Gewitterwolken

METAR: LSZS 212250Z AUTO VRB01KT CAVOK 01/M02 Q1025

Zeit: 01:05 (23:05 UTC)

Prognose

Neuester Wetterbericht von vor 8 Stunden und 40 Minuten, um 14:25 UTC
Gültige Prognose vom 21 um 15 UTC bis 21 um 24 UTC
Wind 4 kt aus West
Sichtweite 10 km oder mehr
keine Wolken unter 1500 m und keine Kumulonimbus oder Gewitterwolken

TAF: LSZS 211425Z 2115/2124 28004KT CAVOK TX18/2115Z

Wetterbeobachtungen und Prognosen von mehr als 4000 Flughäfen (METAR und TAF Bericht).

Die verfügbaren Stationen werden durch gelbe und rote Markierungen auf der Karte dargestellt.

Führen Sie die Maus auf sie, um den Namen der Station zu sehen.

Darauf klicken, um die Beobachtung von Wetterbeobachtungen und Prognosen zu sehen.

Um die Karte zu ändern : klicken Sie auf den grünen Tasten mit einem schwarzen Kreuz Zum Vergrößern, auf den grünen Button mit einem Gedankenstrich zu verkleinern, oder auf die grünen Pfeile für benachbarte Karten.


METAR-TAF: